sensor_id;sensor_type;location;lat;lon;timestamp;pressure;altitude;pressure_sealevel;temperature;humidity
8280;BME280;8335;42.646;23.380;2023-03-15T00:01:51;143323.09;;;6.99;43.32
8280;BME280;8335;42.646;23.380;2023-03-15T00:04:18;143299.56;;;6.89;43.54
8280;BME280;8335;42.646;23.380;2023-03-15T00:06:45;143308.22;;;6.93;43.10
8280;BME280;8335;42.646;23.380;2023-03-15T00:09:12;143314.44;;;6.95;43.66
8280;BME280;8335;42.646;23.380;2023-03-15T00:11:39;143319.38;;;6.97;43.17
8280;BME280;8335;42.646;23.380;2023-03-15T00:14:05;143308.22;;;6.93;43.32
8280;BME280;8335;42.646;23.380;2023-03-15T00:16:34;143302.03;;;6.90;43.22
8280;BME280;8335;42.646;23.380;2023-03-15T00:19:00;143284.69;;;6.83;43.61
8280;BME280;8335;42.646;23.380;2023-03-15T00:21:27;143287.16;;;6.84;44.27
8280;BME280;8335;42.646;23.380;2023-03-15T00:23:54;143276.03;;;6.79;43.67
8280;BME280;8335;42.646;23.380;2023-03-15T00:26:21;143276.03;;;6.79;43.62
8280;BME280;8335;42.646;23.380;2023-03-15T00:28:48;143276.03;;;6.79;43.54
8280;BME280;8335;42.646;23.380;2023-03-15T00:31:18;143259.91;;;6.73;43.35
8280;BME280;8335;42.646;23.380;2023-03-15T00:33:48;143283.44;;;6.82;43.88
8280;BME280;8335;42.646;23.380;2023-03-15T00:36:18;143276.03;;;6.79;43.01
8280;BME280;8335;42.646;23.380;2023-03-15T00:38:48;143221.47;;;6.57;43.38
8280;BME280;8335;42.646;23.380;2023-03-15T00:41:16;143288.41;;;6.84;43.47
8280;BME280;8335;42.646;23.380;2023-03-15T00:43:43;143288.41;;;6.84;43.16
8280;BME280;8335;42.646;23.380;2023-03-15T00:46:11;143292.16;;;6.86;42.42
8280;BME280;8335;42.646;23.380;2023-03-15T00:48:38;143228.94;;;6.60;43.13
8280;BME280;8335;42.646;23.380;2023-03-15T00:51:08;143293.38;;;6.86;43.40
8280;BME280;8335;42.646;23.380;2023-03-15T00:53:37;143285.94;;;6.83;43.77
8280;BME280;8335;42.646;23.380;2023-03-15T00:56:05;143287.16;;;6.84;43.66
8280;BME280;8335;42.646;23.380;2023-03-15T00:58:32;143278.50;;;6.80;43.03
8280;BME280;8335;42.646;23.380;2023-03-15T01:00:59;143287.16;;;6.84;43.27
8280;BME280;8335;42.646;23.380;2023-03-15T01:03:26;143277.28;;;6.80;43.65
8280;BME280;8335;42.646;23.380;2023-03-15T01:05:53;143306.97;;;6.92;43.38
8280;BME280;8335;42.646;23.380;2023-03-15T01:08:21;143304.50;;;6.91;43.70
8280;BME280;8335;42.646;23.380;2023-03-15T01:10:48;143319.38;;;6.97;43.43
8280;BME280;8335;42.646;23.380;2023-03-15T01:13:15;143318.16;;;6.97;43.31
8280;BME280;8335;42.646;23.380;2023-03-15T01:15:47;143319.38;;;6.97;43.98
8280;BME280;8335;42.646;23.380;2023-03-15T01:18:13;143339.22;;;7.05;43.81
8280;BME280;8335;42.646;23.380;2023-03-15T01:20:42;143340.44;;;7.06;43.85
8280;BME280;8335;42.646;23.380;2023-03-15T01:23:09;143345.44;;;7.08;43.74
8280;BME280;8335;42.646;23.380;2023-03-15T01:25:37;143350.38;;;7.10;43.24
8280;BME280;8335;42.646;23.380;2023-03-15T01:28:04;143355.34;;;7.12;43.27
8280;BME280;8335;42.646;23.380;2023-03-15T01:30:31;143304.50;;;6.91;43.35
8280;BME280;8335;42.646;23.380;2023-03-15T01:32:58;143357.81;;;7.13;42.88
8280;BME280;8335;42.646;23.380;2023-03-15T01:35:25;143341.69;;;7.06;43.93
8280;BME280;8335;42.646;23.380;2023-03-15T01:37:52;143357.81;;;7.13;43.89
8280;BME280;8335;42.646;23.380;2023-03-15T01:40:19;143356.56;;;7.12;43.81
8280;BME280;8335;42.646;23.380;2023-03-15T01:42:52;143356.56;;;7.12;43.74
8280;BME280;8335;42.646;23.380;2023-03-15T01:45:58;143352.84;;;7.11;43.83
8280;BME280;8335;42.646;23.380;2023-03-15T01:48:28;143347.91;;;7.09;43.62
8280;BME280;8335;42.646;23.380;2023-03-15T01:50:59;143323.09;;;6.99;45.11
8280;BME280;8335;42.646;23.380;2023-03-15T01:53:28;143341.69;;;7.06;44.28
8280;BME280;8335;42.646;23.380;2023-03-15T01:55:56;143331.78;;;7.02;45.01
8280;BME280;8335;42.646;23.380;2023-03-15T01:58:25;143292.16;;;6.86;45.60
8280;BME280;8335;42.646;23.380;2023-03-15T02:00:53;143245.03;;;6.67;46.13
8280;BME280;8335;42.646;23.380;2023-03-15T02:03:22;143246.28;;;6.67;46.36
8280;BME280;8335;42.646;23.380;2023-03-15T02:05:53;143245.03;;;6.67;47.03
8280;BME280;8335;42.646;23.380;2023-03-15T02:08:26;143237.59;;;6.63;47.06
8280;BME280;8335;42.646;23.380;2023-03-15T02:10:56;143237.59;;;6.63;47.61
8280;BME280;8335;42.646;23.380;2023-03-15T02:13:29;143237.59;;;6.63;47.37
8280;BME280;8335;42.646;23.380;2023-03-15T02:15:56;143221.47;;;6.57;46.79
8280;BME280;8335;42.646;23.380;2023-03-15T02:18:23;143219.00;;;6.56;47.25
8280;BME280;8335;42.646;23.380;2023-03-15T02:20:58;143191.78;;;6.45;47.70
8280;BME280;8335;42.646;23.380;2023-03-15T02:23:27;143077.81;;;5.98;48.17
8280;BME280;8335;42.646;23.380;2023-03-15T02:26:05;143157.09;;;6.30;48.27
8280;BME280;8335;42.646;23.380;2023-03-15T02:28:40;143158.31;;;6.31;48.65
8280;BME280;8335;42.646;23.380;2023-03-15T02:31:07;143121.16;;;6.16;48.39
8280;BME280;8335;42.646;23.380;2023-03-15T02:33:40;143159.56;;;6.31;48.40
8280;BME280;8335;42.646;23.380;2023-03-15T02:36:10;143158.31;;;6.31;48.59
8280;BME280;8335;42.646;23.380;2023-03-15T02:38:40;143154.63;;;6.29;49.40
8280;BME280;8335;42.646;23.380;2023-03-15T02:41:07;143154.63;;;6.29;49.31
8280;BME280;8335;42.646;23.380;2023-03-15T02:43:34;143113.72;;;6.13;49.40
8280;BME280;8335;42.646;23.380;2023-03-15T02:46:03;143144.69;;;6.25;49.16
8280;BME280;8335;42.646;23.380;2023-03-15T02:48:33;143134.75;;;6.21;49.36
8280;BME280;8335;42.646;23.380;2023-03-15T02:51:00;143124.88;;;6.17;49.03
8280;BME280;8335;42.646;23.380;2023-03-15T02:53:28;143131.06;;;6.20;49.16
8280;BME280;8335;42.646;23.380;2023-03-15T02:55:55;143126.13;;;6.18;50.35
8280;BME280;8335;42.646;23.380;2023-03-15T02:58:22;143096.38;;;6.05;49.33
8280;BME280;8335;42.646;23.380;2023-03-15T03:00:49;143092.66;;;6.04;50.44
8280;BME280;8335;42.646;23.380;2023-03-15T03:03:19;143075.34;;;5.97;50.61
8280;BME280;8335;42.646;23.380;2023-03-15T03:05:45;143067.91;;;5.94;50.71
8280;BME280;8335;42.646;23.380;2023-03-15T03:08:12;143055.47;;;5.89;51.13
8280;BME280;8335;42.646;23.380;2023-03-15T03:10:41;143025.75;;;5.76;51.80
8280;BME280;8335;42.646;23.380;2023-03-15T03:13:08;143023.28;;;5.75;51.47
8280;BME280;8335;42.646;23.380;2023-03-15T03:15:35;143004.72;;;5.68;51.61
8280;BME280;8335;42.646;23.380;2023-03-15T03:18:02;142986.16;;;5.60;51.31
8280;BME280;8335;42.646;23.380;2023-03-15T03:20:31;142975.00;;;5.56;52.01
8280;BME280;8335;42.646;23.380;2023-03-15T03:22:58;142971.28;;;5.54;51.84
8280;BME280;8335;42.646;23.380;2023-03-15T03:25:30;142996.03;;;5.64;51.71
8280;BME280;8335;42.646;23.380;2023-03-15T03:27:57;143009.66;;;5.70;51.58
8280;BME280;8335;42.646;23.380;2023-03-15T03:30:24;143008.41;;;5.69;52.06
8280;BME280;8335;42.646;23.380;2023-03-15T03:32:51;143009.66;;;5.70;51.93
8280;BME280;8335;42.646;23.380;2023-03-15T03:35:17;142994.78;;;5.64;52.04
8280;BME280;8335;42.646;23.380;2023-03-15T03:37:46;142987.38;;;5.61;52.58
8280;BME280;8335;42.646;23.380;2023-03-15T03:40:13;142991.09;;;5.62;53.04
8280;BME280;8335;42.646;23.380;2023-03-15T03:42:39;142993.56;;;5.63;52.93
8280;BME280;8335;42.646;23.380;2023-03-15T03:45:07;142997.31;;;5.65;53.54
8280;BME280;8335;42.646;23.380;2023-03-15T03:47:34;143008.41;;;5.69;53.62
8280;BME280;8335;42.646;23.380;2023-03-15T03:50:01;143010.88;;;5.70;53.27
8280;BME280;8335;42.646;23.380;2023-03-15T03:52:27;143003.47;;;5.67;53.79
8280;BME280;8335;42.646;23.380;2023-03-15T03:54:56;143001.00;;;5.66;54.04
8280;BME280;8335;42.646;23.380;2023-03-15T03:57:23;143003.47;;;5.67;54.29
8280;BME280;8335;42.646;23.380;2023-03-15T03:59:50;143025.75;;;5.76;54.72
8280;BME280;8335;42.646;23.380;2023-03-15T04:02:17;143029.44;;;5.78;55.02
8280;BME280;8335;42.646;23.380;2023-03-15T04:04:43;143025.75;;;5.76;54.75
8280;BME280;8335;42.646;23.380;2023-03-15T04:07:14;143024.50;;;5.76;55.06
8280;BME280;8335;42.646;23.380;2023-03-15T04:09:41;143035.66;;;5.80;55.72
8280;BME280;8335;42.646;23.380;2023-03-15T04:12:10;143033.22;;;5.79;56.03
8280;BME280;8335;42.646;23.380;2023-03-15T04:14:36;143033.22;;;5.79;56.47
8280;BME280;8335;42.646;23.380;2023-03-15T04:17:03;143025.75;;;5.76;56.62
8280;BME280;8335;42.646;23.380;2023-03-15T04:19:30;143019.56;;;5.74;57.18
8280;BME280;8335;42.646;23.380;2023-03-15T04:21:57;143028.22;;;5.77;57.56
8280;BME280;8335;42.646;23.380;2023-03-15T04:24:31;143020.81;;;5.74;58.29
8280;BME280;8335;42.646;23.380;2023-03-15T04:26:59;143014.63;;;5.72;58.98
8280;BME280;8335;42.646;23.380;2023-03-15T04:29:27;143012.13;;;5.71;59.42
8280;BME280;8335;42.646;23.380;2023-03-15T04:31:55;142993.56;;;5.63;60.05
8280;BME280;8335;42.646;23.380;2023-03-15T04:34:26;142991.09;;;5.62;60.18
8280;BME280;8335;42.646;23.380;2023-03-15T04:36:54;142976.22;;;5.56;60.56
8280;BME280;8335;42.646;23.380;2023-03-15T04:39:21;142991.09;;;5.62;60.61
8280;BME280;8335;42.646;23.380;2023-03-15T04:41:48;142997.31;;;5.65;60.15
8280;BME280;8335;42.646;23.380;2023-03-15T04:44:15;143001.00;;;5.66;60.23
8280;BME280;8335;42.646;23.380;2023-03-15T04:46:43;142999.78;;;5.66;59.59
8280;BME280;8335;42.646;23.380;2023-03-15T04:49:10;142997.31;;;5.65;59.63
8280;BME280;8335;42.646;23.380;2023-03-15T04:51:37;142999.78;;;5.66;59.51
8280;BME280;8335;42.646;23.380;2023-03-15T04:54:04;142998.53;;;5.65;60.00
8280;BME280;8335;42.646;23.380;2023-03-15T04:56:31;143015.88;;;5.72;60.17
8280;BME280;8335;42.646;23.380;2023-03-15T04:58:58;143028.22;;;5.77;60.22
8280;BME280;8335;42.646;23.380;2023-03-15T05:01:28;143029.44;;;5.78;60.76
8280;BME280;8335;42.646;23.380;2023-03-15T05:03:57;143023.28;;;5.75;60.88
8280;BME280;8335;42.646;23.380;2023-03-15T05:06:24;143022.03;;;5.75;60.62
8280;BME280;8335;42.646;23.380;2023-03-15T05:08:51;143015.88;;;5.72;61.80
8280;BME280;8335;42.646;23.380;2023-03-15T05:11:17;143023.28;;;5.75;61.46
8280;BME280;8335;42.646;23.380;2023-03-15T05:13:44;143035.66;;;5.80;61.23
8280;BME280;8335;42.646;23.380;2023-03-15T05:16:11;143019.56;;;5.74;61.02
8280;BME280;8335;42.646;23.380;2023-03-15T05:18:38;143044.31;;;5.84;61.50
8280;BME280;8335;42.646;23.380;2023-03-15T05:21:07;143036.91;;;5.81;61.91
8280;BME280;8335;42.646;23.380;2023-03-15T05:23:34;143049.31;;;5.86;61.98
8280;BME280;8335;42.646;23.380;2023-03-15T05:26:01;143069.16;;;5.94;60.98
8280;BME280;8335;42.646;23.380;2023-03-15T05:28:28;143097.63;;;6.06;61.03
8280;BME280;8335;42.646;23.380;2023-03-15T05:30:56;143088.97;;;6.02;60.95
8280;BME280;8335;42.646;23.380;2023-03-15T05:33:23;143108.78;;;6.11;60.38
8280;BME280;8335;42.646;23.380;2023-03-15T05:35:50;143131.06;;;6.20;59.66
8280;BME280;8335;42.646;23.380;2023-03-15T05:38:22;143143.44;;;6.25;59.94
8280;BME280;8335;42.646;23.380;2023-03-15T05:40:51;143154.63;;;6.29;60.10
8280;BME280;8335;42.646;23.380;2023-03-15T05:43:18;143178.13;;;6.39;58.19
8280;BME280;8335;42.646;23.380;2023-03-15T05:45:44;143196.72;;;6.47;58.12
8280;BME280;8335;42.646;23.380;2023-03-15T05:48:13;143211.59;;;6.53;58.03
8280;BME280;8335;42.646;23.380;2023-03-15T05:50:39;143230.16;;;6.60;57.80
8280;BME280;8335;42.646;23.380;2023-03-15T05:53:06;143194.25;;;6.46;57.60
8280;BME280;8335;42.646;23.380;2023-03-15T05:55:34;143193.00;;;6.45;57.09
8280;BME280;8335;42.646;23.380;2023-03-15T05:58:01;143204.13;;;6.50;57.54
8280;BME280;8335;42.646;23.380;2023-03-15T06:00:28;143233.88;;;6.62;57.15
8280;BME280;8335;42.646;23.380;2023-03-15T06:02:55;143261.16;;;6.73;55.94
8280;BME280;8335;42.646;23.380;2023-03-15T06:05:21;143273.50;;;6.78;55.61
8280;BME280;8335;42.646;23.380;2023-03-15T06:07:48;143293.38;;;6.86;55.25
8280;BME280;8335;42.646;23.380;2023-03-15T06:10:15;143316.91;;;6.96;55.41
8280;BME280;8335;42.646;23.380;2023-03-15T06:12:43;143362.78;;;7.15;55.92
8280;BME280;8335;42.646;23.380;2023-03-15T06:15:10;143407.41;;;7.33;54.27
8280;BME280;8335;42.646;23.380;2023-03-15T06:17:37;143510.31;;;7.76;54.19
8280;BME280;8335;42.646;23.380;2023-03-15T06:20:05;143777.13;;;8.85;51.65
8280;BME280;8335;42.646;23.380;2023-03-15T06:22:32;144149.84;;;10.38;48.43
8280;BME280;8335;42.646;23.380;2023-03-15T06:24:59;144468.19;;;11.68;44.69
8280;BME280;8335;42.646;23.380;2023-03-15T06:27:27;144702.22;;;12.64;41.90
8280;BME280;8335;42.646;23.380;2023-03-15T06:29:55;144786.91;;;12.99;41.10
8280;BME280;8335;42.646;23.380;2023-03-15T06:32:22;144774.47;;;12.93;41.05
8280;BME280;8335;42.646;23.380;2023-03-15T06:34:49;144770.72;;;12.92;40.90
8280;BME280;8335;42.646;23.380;2023-03-15T06:37:16;144945.16;;;13.63;40.17
8280;BME280;8335;42.646;23.380;2023-03-15T06:39:43;145152.16;;;14.48;38.10
8280;BME280;8335;42.646;23.380;2023-03-15T06:42:10;145145.88;;;14.45;37.14
8280;BME280;8335;42.646;23.380;2023-03-15T06:44:37;145113.47;;;14.32;37.06
8280;BME280;8335;42.646;23.380;2023-03-15T06:47:06;145212.03;;;14.72;37.05
8280;BME280;8335;42.646;23.380;2023-03-15T06:49:33;145440.41;;;15.65;35.30
8280;BME280;8335;42.646;23.380;2023-03-15T06:51:59;145656.38;;;16.54;33.99
8280;BME280;8335;42.646;23.380;2023-03-15T06:54:26;145738.88;;;16.87;33.30
8280;BME280;8335;42.646;23.380;2023-03-15T06:56:53;146011.34;;;17.98;31.66
8280;BME280;8335;42.646;23.380;2023-03-15T06:59:20;146150.16;;;18.55;30.88
8280;BME280;8335;42.646;23.380;2023-03-15T07:01:46;146060.13;;;18.18;30.29
8280;BME280;8335;42.646;23.380;2023-03-15T07:04:15;145940.03;;;17.69;30.48
8280;BME280;8335;42.646;23.380;2023-03-15T07:06:41;146033.88;;;18.07;30.08
8280;BME280;8335;42.646;23.380;2023-03-15T07:09:09;146216.50;;;18.82;29.57
8280;BME280;8335;42.646;23.380;2023-03-15T07:11:36;146384.16;;;19.50;28.79
8280;BME280;8335;42.646;23.380;2023-03-15T07:14:03;146354.16;;;19.38;28.68
8280;BME280;8335;42.646;23.380;2023-03-15T07:16:30;146267.81;;;19.03;28.77
8280;BME280;8335;42.646;23.380;2023-03-15T07:18:57;146274.06;;;19.05;29.01
8280;BME280;8335;42.646;23.380;2023-03-15T07:21:25;146262.81;;;19.01;28.86
8280;BME280;8335;42.646;23.380;2023-03-15T07:23:52;146234.03;;;18.89;28.67
8280;BME280;8335;42.646;23.380;2023-03-15T07:26:19;146162.69;;;18.60;29.06
8280;BME280;8335;42.646;23.380;2023-03-15T07:28:46;146165.16;;;18.61;28.48
8280;BME280;8335;42.646;23.380;2023-03-15T07:31:13;146111.41;;;18.39;28.31
8280;BME280;8335;42.646;23.380;2023-03-15T07:33:41;145967.63;;;17.80;28.47
8280;BME280;8335;42.646;23.380;2023-03-15T07:36:08;145845.06;;;17.30;29.27
8280;BME280;8335;42.646;23.380;2023-03-15T07:38:36;145872.53;;;17.42;29.47
8280;BME280;8335;42.646;23.380;2023-03-15T07:41:04;145890.03;;;17.49;29.71
8280;BME280;8335;42.646;23.380;2023-03-15T07:43:31;145986.34;;;17.88;29.22
8280;BME280;8335;42.646;23.380;2023-03-15T07:45:59;146055.13;;;18.16;28.76
8280;BME280;8335;42.646;23.380;2023-03-15T07:48:25;145976.34;;;17.84;28.67
8280;BME280;8335;42.646;23.380;2023-03-15T07:50:53;146022.63;;;18.03;28.90
8280;BME280;8335;42.646;23.380;2023-03-15T07:53:20;146053.88;;;18.15;28.49
8280;BME280;8335;42.646;23.380;2023-03-15T07:55:49;146051.38;;;18.14;29.03
8280;BME280;8335;42.646;23.380;2023-03-15T07:58:18;146137.63;;;18.50;28.67
8280;BME280;8335;42.646;23.380;2023-03-15T08:00:45;146260.28;;;19.00;28.33
8280;BME280;8335;42.646;23.380;2023-03-15T08:03:12;146331.59;;;19.29;28.00
8280;BME280;8335;42.646;23.380;2023-03-15T08:05:38;146365.41;;;19.42;27.79
8280;BME280;8335;42.646;23.380;2023-03-15T08:08:05;146397.94;;;19.56;28.01
8280;BME280;8335;42.646;23.380;2023-03-15T08:10:32;146370.44;;;19.44;28.16
8280;BME280;8335;42.646;23.380;2023-03-15T08:13:01;146264.06;;;19.01;28.67
8280;BME280;8335;42.646;23.380;2023-03-15T08:15:27;146043.84;;;18.11;29.28
8280;BME280;8335;42.646;23.380;2023-03-15T08:17:54;145957.59;;;17.76;30.58
8280;BME280;8335;42.646;23.380;2023-03-15T08:20:21;145912.56;;;17.58;30.76
8280;BME280;8335;42.646;23.380;2023-03-15T08:22:48;146102.63;;;18.35;30.23
8280;BME280;8335;42.646;23.380;2023-03-15T08:25:17;146138.88;;;18.50;29.73
8280;BME280;8335;42.646;23.380;2023-03-15T08:27:45;146197.75;;;18.74;29.65
8280;BME280;8335;42.646;23.380;2023-03-15T08:30:14;146294.06;;;19.13;28.56
8280;BME280;8335;42.646;23.380;2023-03-15T08:32:42;146403.03;;;19.58;27.68
8280;BME280;8335;42.646;23.380;2023-03-15T08:35:11;146414.28;;;19.62;27.87
8280;BME280;8335;42.646;23.380;2023-03-15T08:37:39;146445.56;;;19.75;27.58
8280;BME280;8335;42.646;23.380;2023-03-15T08:40:06;146411.78;;;19.61;27.59
8280;BME280;8335;42.646;23.380;2023-03-15T08:42:34;146395.44;;;19.55;27.92
8280;BME280;8335;42.646;23.380;2023-03-15T08:45:02;146296.56;;;19.14;28.37
8280;BME280;8335;42.646;23.380;2023-03-15T08:47:30;146266.56;;;19.02;28.39
8280;BME280;8335;42.646;23.380;2023-03-15T08:49:59;146194.00;;;18.73;28.94
8280;BME280;8335;42.646;23.380;2023-03-15T08:52:26;146097.63;;;18.33;29.02
8280;BME280;8335;42.646;23.380;2023-03-15T08:54:53;146037.63;;;18.09;29.35
8280;BME280;8335;42.646;23.380;2023-03-15T08:57:19;145981.38;;;17.86;29.72
8280;BME280;8335;42.646;23.380;2023-03-15T08:59:50;145897.56;;;17.52;30.24
8280;BME280;8335;42.646;23.380;2023-03-15T09:02:16;145758.84;;;16.95;30.68
8280;BME280;8335;42.646;23.380;2023-03-15T09:04:45;145773.84;;;17.01;31.88
8280;BME280;8335;42.646;23.380;2023-03-15T09:07:12;145820.06;;;17.20;31.16
8280;BME280;8335;42.646;23.380;2023-03-15T09:09:40;145838.78;;;17.28;30.67
8280;BME280;8335;42.646;23.380;2023-03-15T09:12:13;145823.84;;;17.22;30.27
8280;BME280;8335;42.646;23.380;2023-03-15T09:14:41;145798.81;;;17.12;30.61
8280;BME280;8335;42.646;23.380;2023-03-15T09:17:08;145770.06;;;17.00;31.03
8280;BME280;8335;42.646;23.380;2023-03-15T09:19:35;145702.66;;;16.72;30.98
8280;BME280;8335;42.646;23.380;2023-03-15T09:22:03;145667.63;;;16.58;30.98
8280;BME280;8335;42.646;23.380;2023-03-15T09:24:31;145628.88;;;16.42;31.72
8280;BME280;8335;42.646;23.380;2023-03-15T09:26:57;145521.50;;;15.99;32.39
8280;BME280;8335;42.646;23.380;2023-03-15T09:29:24;145395.41;;;15.47;32.86
8280;BME280;8335;42.646;23.380;2023-03-15T09:31:51;145377.94;;;15.40;33.22
8280;BME280;8335;42.646;23.380;2023-03-15T09:34:18;145349.22;;;15.28;33.49
8280;BME280;8335;42.646;23.380;2023-03-15T09:36:44;145391.66;;;15.46;33.73
8280;BME280;8335;42.646;23.380;2023-03-15T09:39:19;145422.88;;;15.58;33.66
8280;BME280;8335;42.646;23.380;2023-03-15T09:41:47;145507.75;;;15.93;34.00
8280;BME280;8335;42.646;23.380;2023-03-15T09:44:29;145540.22;;;16.06;33.01
8280;BME280;8335;42.646;23.380;2023-03-15T09:47:06;145536.50;;;16.05;33.04
8280;BME280;8335;42.646;23.380;2023-03-15T09:49:41;145535.25;;;16.04;33.19
8280;BME280;8335;42.646;23.380;2023-03-15T09:52:20;145445.38;;;15.67;33.62
8280;BME280;8335;42.646;23.380;2023-03-15T09:54:56;145401.63;;;15.50;33.93
8280;BME280;8335;42.646;23.380;2023-03-15T09:57:30;145445.38;;;15.67;33.77
8280;BME280;8335;42.646;23.380;2023-03-15T10:00:02;145464.09;;;15.75;34.38
8280;BME280;8335;42.646;23.380;2023-03-15T10:02:31;145444.13;;;15.67;34.36
8280;BME280;8335;42.646;23.380;2023-03-15T10:05:00;145430.41;;;15.61;34.52
8280;BME280;8335;42.646;23.380;2023-03-15T10:07:30;145424.13;;;15.59;33.58
8280;BME280;8335;42.646;23.380;2023-03-15T10:09:58;145417.84;;;15.56;33.82
8280;BME280;8335;42.646;23.380;2023-03-15T10:12:29;145412.88;;;15.54;34.05
8280;BME280;8335;42.646;23.380;2023-03-15T10:15:03;145303.09;;;15.09;34.39
8280;BME280;8335;42.646;23.380;2023-03-15T10:17:39;145231.97;;;14.80;35.12
8280;BME280;8335;42.646;23.380;2023-03-15T10:20:12;145228.25;;;14.79;35.44
8280;BME280;8335;42.646;23.380;2023-03-15T10:22:48;145284.38;;;15.02;35.09
8280;BME280;8335;42.646;23.380;2023-03-15T10:25:21;145301.84;;;15.09;34.85
8280;BME280;8335;42.646;23.380;2023-03-15T10:27:53;145310.53;;;15.12;34.87
8280;BME280;8335;42.646;23.380;2023-03-15T10:30:23;145295.56;;;15.06;34.57
8280;BME280;8335;42.646;23.380;2023-03-15T10:32:53;145298.09;;;15.07;34.91
8280;BME280;8335;42.646;23.380;2023-03-15T10:35:22;145259.41;;;14.92;35.12
8280;BME280;8335;42.646;23.380;2023-03-15T10:37:49;145197.06;;;14.66;35.64
8280;BME280;8335;42.646;23.380;2023-03-15T10:40:41;145119.69;;;14.35;36.00
8280;BME280;8335;42.646;23.380;2023-03-15T10:43:18;145088.53;;;14.22;36.41
8280;BME280;8335;42.646;23.380;2023-03-15T10:45:48;144996.25;;;13.84;36.79
8280;BME280;8335;42.646;23.380;2023-03-15T10:48:24;145023.72;;;13.95;36.65
8280;BME280;8335;42.646;23.380;2023-03-15T10:50:54;145051.09;;;14.07;36.84
8280;BME280;8335;42.646;23.380;2023-03-15T10:53:20;145089.78;;;14.22;36.54
8280;BME280;8335;42.646;23.380;2023-03-15T10:55:57;145092.28;;;14.23;36.98
8280;BME280;8335;42.646;23.380;2023-03-15T10:58:26;145094.75;;;14.24;37.39
8280;BME280;8335;42.646;23.380;2023-03-15T11:00:58;145074.81;;;14.16;37.13
8280;BME280;8335;42.646;23.380;2023-03-15T11:03:27;145044.88;;;14.04;36.96
8280;BME280;8335;42.646;23.380;2023-03-15T11:05:57;145028.69;;;13.97;36.87
8280;BME280;8335;42.646;23.380;2023-03-15T11:08:34;144993.78;;;13.83;36.53
8280;BME280;8335;42.646;23.380;2023-03-15T11:11:07;144941.44;;;13.62;37.29
8280;BME280;8335;42.646;23.380;2023-03-15T11:13:36;144871.66;;;13.33;37.54
8280;BME280;8335;42.646;23.380;2023-03-15T11:16:06;144881.66;;;13.37;38.00
8280;BME280;8335;42.646;23.380;2023-03-15T11:18:36;144865.44;;;13.31;38.24
8280;BME280;8335;42.646;23.380;2023-03-15T11:21:12;144870.41;;;13.33;38.90
8280;BME280;8335;42.646;23.380;2023-03-15T11:23:43;144871.66;;;13.33;38.05
8280;BME280;8335;42.646;23.380;2023-03-15T11:26:17;144836.72;;;13.19;38.30
8280;BME280;8335;42.646;23.380;2023-03-15T11:28:47;144886.63;;;13.39;37.64
8280;BME280;8335;42.646;23.380;2023-03-15T11:31:16;144965.09;;;13.71;37.58
8280;BME280;8335;42.646;23.380;2023-03-15T11:33:49;145003.78;;;13.87;37.67
8280;BME280;8335;42.646;23.380;2023-03-15T11:36:19;145044.88;;;14.04;38.11
8280;BME280;8335;42.646;23.380;2023-03-15T11:38:47;145071.09;;;14.15;36.99
8280;BME280;8335;42.646;23.380;2023-03-15T11:41:27;145098.50;;;14.26;36.77
8280;BME280;8335;42.646;23.380;2023-03-15T11:44:07;145108.47;;;14.30;37.38
8280;BME280;8335;42.646;23.380;2023-03-15T11:46:48;145112.22;;;14.31;36.39
8280;BME280;8335;42.646;23.380;2023-03-15T11:49:28;145061.09;;;14.11;37.35
8280;BME280;8335;42.646;23.380;2023-03-15T11:51:56;145061.09;;;14.11;37.11
8280;BME280;8335;42.646;23.380;2023-03-15T11:54:25;145026.19;;;13.96;37.23
8280;BME280;8335;42.646;23.380;2023-03-15T11:56:55;145028.69;;;13.97;36.92
8280;BME280;8335;42.646;23.380;2023-03-15T11:59:27;145053.63;;;14.08;37.12
8280;BME280;8335;42.646;23.380;2023-03-15T12:01:58;145046.13;;;14.04;36.92
8280;BME280;8335;42.646;23.380;2023-03-15T12:04:39;145033.66;;;13.99;37.30
8280;BME280;8335;42.646;23.380;2023-03-15T12:07:35;145046.13;;;14.04;37.02
8280;BME280;8335;42.646;23.380;2023-03-15T12:10:28;145078.53;;;14.18;36.94
8280;BME280;8335;42.646;23.380;2023-03-15T12:12:58;145072.31;;;14.15;37.67
8280;BME280;8335;42.646;23.380;2023-03-15T12:15:43;145099.72;;;14.26;37.07
8280;BME280;8335;42.646;23.380;2023-03-15T12:18:16;145096.00;;;14.25;36.98
8280;BME280;8335;42.646;23.380;2023-03-15T12:20:49;145039.91;;;14.02;37.27
8280;BME280;8335;42.646;23.380;2023-03-15T12:23:28;144970.13;;;13.73;37.59
8280;BME280;8335;42.646;23.380;2023-03-15T12:25:57;144930.22;;;13.57;38.06
8280;BME280;8335;42.646;23.380;2023-03-15T12:28:32;144950.19;;;13.65;38.82
8280;BME280;8335;42.646;23.380;2023-03-15T12:31:01;144953.91;;;13.67;38.24
8280;BME280;8335;42.646;23.380;2023-03-15T12:33:31;144943.91;;;13.63;38.71
8280;BME280;8335;42.646;23.380;2023-03-15T12:36:01;144928.97;;;13.57;38.32
8280;BME280;8335;42.646;23.380;2023-03-15T12:38:35;144837.97;;;13.19;38.86
8280;BME280;8335;42.646;23.380;2023-03-15T12:41:06;144795.63;;;13.02;39.73
8280;BME280;8335;42.646;23.380;2023-03-15T12:43:39;144765.75;;;12.90;40.10
8280;BME280;8335;42.646;23.380;2023-03-15T12:49:28;144710.94;;;12.67;40.54
8280;BME280;8335;42.646;23.380;2023-03-15T12:51:58;144725.91;;;12.74;40.50
8280;BME280;8335;42.646;23.380;2023-03-15T12:54:31;144744.56;;;12.81;40.30
8280;BME280;8335;42.646;23.380;2023-03-15T12:56:59;144776.97;;;12.94;40.45
8280;BME280;8335;42.646;23.380;2023-03-15T12:59:32;144783.16;;;12.97;39.71
8280;BME280;8335;42.646;23.380;2023-03-15T13:02:02;144795.63;;;13.02;39.88
8280;BME280;8335;42.646;23.380;2023-03-15T13:04:30;144803.09;;;13.05;39.70
8280;BME280;8335;42.646;23.380;2023-03-15T13:07:06;144826.78;;;13.15;39.66
8280;BME280;8335;42.646;23.380;2023-03-15T13:10:02;144837.97;;;13.19;39.49
8280;BME280;8335;42.646;23.380;2023-03-15T13:12:36;144850.50;;;13.25;39.29
8280;BME280;8335;42.646;23.380;2023-03-15T13:15:10;144885.38;;;13.39;39.14
8280;BME280;8335;42.646;23.380;2023-03-15T13:17:44;144896.59;;;13.43;39.21
8280;BME280;8335;42.646;23.380;2023-03-15T13:20:41;144859.19;;;13.28;39.14